Time;durP1;ratioP1;P1;durP2;ratioP2;P2;SDS_P1;SDS_P2;PMS_P1;PMS_P2;Temp;Humidity;BMP_temperature;BMP_pressure;BME280_temperature;BME280_humidity;BME280_pressure;Samples;Min_cycle;Max_cycle;Signal;HPM_P1;HPM_P2
2022/06/19 00:01:16;;;;;;;12.05;5.28;;;30.30;49.90;31.70;99956.00;;;;5067756;28;20254;-45
2022/06/19 00:03:54;;;;;;;8.30;4.93;;;30.30;49.80;31.70;99950.00;;;;5049305;28;20189;-45
2022/06/19 00:06:20;;;;;;;12.95;5.22;;;30.30;49.60;31.60;99955.00;;;;5050409;28;20714;-44
2022/06/19 00:08:48;;;;;;;11.02;4.97;;;30.20;49.30;31.60;99953.00;;;;5067012;28;20170;-45
2022/06/19 00:11:16;;;;;;;10.65;4.85;;;30.20;49.50;31.60;99947.00;;;;5067106;28;20201;-45
2022/06/19 00:13:42;;;;;;;11.15;5.32;;;30.30;49.50;31.60;99934.00;;;;5066825;28;20224;-44
2022/06/19 00:16:08;;;;;;;10.38;5.25;;;30.20;49.30;31.60;99940.00;;;;5067396;28;20170;-45
2022/06/19 00:18:34;;;;;;;10.68;4.80;;;30.20;49.60;31.60;99927.00;;;;5071167;28;20162;-44
2022/06/19 00:21:00;;;;;;;9.38;5.00;;;30.10;49.70;31.50;99930.00;;;;5072276;28;20181;-44
2022/06/19 00:23:26;;;;;;;10.93;5.70;;;30.20;49.90;31.50;99929.00;;;;5071690;28;20271;-46
2022/06/19 00:25:52;;;;;;;8.65;4.60;;;30.20;49.80;31.50;99917.00;;;;5068873;28;20173;-45
2022/06/19 00:28:18;;;;;;;11.80;4.88;;;30.20;49.60;31.50;99917.00;;;;5067048;28;20182;-44
2022/06/19 00:30:44;;;;;;;13.00;5.30;;;30.20;49.70;31.50;99907.00;;;;5066965;28;20709;-47
2022/06/19 00:33:09;;;;;;;8.27;5.00;;;30.20;49.80;31.50;99905.00;;;;5067105;28;20185;-44
2022/06/19 00:35:35;;;;;;;10.02;4.97;;;30.20;49.80;31.50;99903.00;;;;5082087;28;20177;-51
2022/06/19 00:38:01;;;;;;;8.98;4.95;;;30.20;50.00;31.40;99887.00;;;;5094978;28;20150;-44
2022/06/19 00:40:29;;;;;;;11.05;5.20;;;30.10;49.80;31.40;99880.00;;;;5093310;28;20232;-45
2022/06/19 00:42:54;;;;;;;9.20;4.82;;;30.00;49.90;31.40;99878.00;;;;5070172;28;20193;-44
2022/06/19 00:45:42;;;;;;;8.68;4.93;;;30.10;50.00;31.40;99872.00;;;;5066544;28;20676;-43
2022/06/19 00:48:23;;;;;;;9.18;4.63;;;30.10;49.70;31.40;99870.00;;;;5066257;28;20797;-45
2022/06/19 00:50:50;;;;;;;10.32;4.55;;;30.00;49.80;31.40;99878.00;;;;5049052;28;20193;-45
2022/06/19 00:53:38;;;;;;;9.07;4.57;;;30.10;49.80;31.40;99863.00;;;;5048601;28;20188;-45
2022/06/19 00:56:04;;;;;;;8.93;4.95;;;30.10;50.00;31.40;99854.00;;;;5065055;28;20174;-45
2022/06/19 00:58:34;;;;;;;8.32;4.93;;;30.10;49.90;31.40;99850.00;;;;5048378;28;20194;-44
2022/06/19 01:01:11;;;;;;;10.73;5.53;;;30.10;50.20;31.30;99861.00;;;;5065075;28;20158;-44
2022/06/19 01:03:59;;;;;;;8.70;5.30;;;30.10;50.50;31.30;99865.00;;;;5065002;28;20468;-45
2022/06/19 01:06:26;;;;;;;9.68;5.28;;;30.10;50.60;31.00;99856.00;;;;5066271;28;20253;-44
2022/06/19 01:08:52;;;;;;;8.68;5.38;;;30.00;50.60;31.30;99855.00;;;;5065984;28;20595;-44
2022/06/19 01:11:19;;;;;;;8.93;4.55;;;30.00;50.60;31.30;99850.00;;;;5067372;28;20202;-47
2022/06/19 01:13:45;;;;;;;9.13;5.32;;;30.00;50.70;31.20;99850.00;;;;5068409;28;20839;-44
2022/06/19 01:16:11;;;;;;;8.20;4.35;;;30.00;50.70;31.20;99847.00;;;;5065120;28;20177;-45
2022/06/19 01:18:38;;;;;;;7.60;4.95;;;30.00;50.60;31.20;99837.00;;;;5048422;28;20166;-45
2022/06/19 01:21:28;;;;;;;7.95;4.80;;;30.00;50.60;31.20;99855.00;;;;5032059;28;20813;-44
2022/06/19 01:24:02;;;;;;;10.52;4.85;;;30.00;50.70;31.20;99840.00;;;;5065450;28;20215;-45
2022/06/19 01:26:30;;;;;;;9.98;4.90;;;30.00;50.80;31.20;99833.00;;;;5066430;28;20534;-44
2022/06/19 01:28:56;;;;;;;7.18;4.68;;;29.90;50.80;31.20;99843.00;;;;5064744;28;20180;-44
2022/06/19 01:31:36;;;;;;;8.88;5.00;;;29.90;50.90;31.20;99838.00;;;;5048298;28;20204;-44
2022/06/19 01:34:38;;;;;;;7.63;5.07;;;29.90;50.90;31.10;99832.00;;;;5048289;28;20184;-43
2022/06/19 01:37:22;;;;;;;7.05;4.78;;;29.90;51.00;31.10;99834.00;;;;5043042;28;20176;-43
2022/06/19 01:39:57;;;;;;;7.15;4.53;;;29.90;51.10;31.10;99832.00;;;;5048588;28;20165;-44
2022/06/19 01:42:23;;;;;;;7.90;5.00;;;29.90;51.00;31.10;99826.00;;;;5047856;28;20202;-44
2022/06/19 01:44:49;;;;;;;7.95;5.50;;;29.90;51.00;31.00;99822.00;;;;5048147;28;20284;-45
2022/06/19 01:47:15;;;;;;;8.77;5.10;;;29.90;51.00;31.00;99818.00;;;;5064756;28;20177;-45
2022/06/19 01:49:47;;;;;;;7.85;5.32;;;29.90;51.00;31.00;99808.00;;;;5065379;28;20205;-44
2022/06/19 01:52:13;;;;;;;8.23;4.65;;;29.90;51.00;31.00;99804.00;;;;5048693;28;20545;-44
2022/06/19 01:54:45;;;;;;;9.82;5.10;;;29.90;51.10;31.00;99802.00;;;;5047672;28;20189;-45
2022/06/19 01:57:11;;;;;;;6.30;4.72;;;29.90;51.20;31.00;99790.00;;;;5048512;28;20197;-45
2022/06/19 01:59:40;;;;;;;7.20;5.07;;;29.90;51.20;30.90;99787.00;;;;5064615;28;20235;-45
2022/06/19 02:02:08;;;;;;;8.82;5.25;;;29.90;51.20;30.90;99787.00;;;;5047816;28;20260;-44
2022/06/19 02:04:34;;;;;;;6.75;5.10;;;29.80;51.10;30.90;99795.00;;;;5065413;28;20205;-44
2022/06/19 02:07:03;;;;;;;7.22;5.10;;;29.80;51.10;30.90;99778.00;;;;5065623;28;20174;-44
2022/06/19 02:09:29;;;;;;;8.82;5.38;;;29.80;51.20;30.90;99763.00;;;;5064059;28;20173;-45
2022/06/19 02:11:55;;;;;;;7.53;4.63;;;29.80;51.20;30.80;99779.00;;;;5047816;28;20168;-44
2022/06/19 02:14:21;;;;;;;7.07;5.13;;;29.80;51.80;30.80;99775.00;;;;5047531;28;20189;-45
2022/06/19 02:16:47;;;;;;;8.80;5.13;;;29.80;51.10;30.80;99759.00;;;;5065440;28;20174;-44
2022/06/19 02:19:13;;;;;;;8.48;5.25;;;29.70;51.10;30.80;99763.00;;;;5064152;28;20249;-44
2022/06/19 02:21:52;;;;;;;8.50;4.80;;;29.70;51.20;30.80;99752.00;;;;5065359;28;20256;-45
2022/06/19 02:24:20;;;;;;;7.22;5.30;;;29.70;51.30;30.70;99759.00;;;;5065101;28;20224;-44
2022/06/19 02:26:47;;;;;;;8.18;5.35;;;29.70;51.30;30.50;99742.00;;;;5047974;28;20170;-44
2022/06/19 02:29:16;;;;;;;6.63;5.05;;;29.70;51.30;30.70;99738.00;;;;5047707;28;20176;-45
2022/06/19 02:31:44;;;;;;;7.47;4.70;;;29.70;51.30;30.70;99733.00;;;;5065535;28;20182;-45
2022/06/19 02:34:36;;;;;;;8.23;5.05;;;29.60;51.30;30.70;99721.00;;;;5047907;28;20193;-45
2022/06/19 02:37:21;;;;;;;8.05;5.57;;;29.60;51.50;30.60;99724.00;;;;5052450;28;20695;-44
2022/06/19 02:40:21;;;;;;;6.75;5.28;;;29.70;51.60;30.60;99733.00;;;;5069166;28;20193;-44
2022/06/19 02:42:47;;;;;;;8.25;5.30;;;29.60;51.60;30.60;99723.00;;;;5054848;28;20205;-44
2022/06/19 02:45:20;;;;;;;7.30;5.22;;;29.60;51.60;30.60;99722.00;;;;5067553;28;20795;-44
2022/06/19 02:47:46;;;;;;;7.90;5.35;;;29.60;51.70;30.50;99731.00;;;;5068905;28;20154;-46
2022/06/19 02:50:16;;;;;;;6.18;4.88;;;29.50;51.60;30.50;99731.00;;;;5069110;28;20200;-44
2022/06/19 02:52:41;;;;;;;9.73;5.55;;;29.50;51.70;30.50;99737.00;;;;5067555;28;20177;-47
2022/06/19 02:55:08;;;;;;;8.48;5.15;;;29.50;51.90;30.40;99741.00;;;;5068406;28;20170;-44
2022/06/19 02:57:33;;;;;;;8.43;4.97;;;29.50;51.80;30.50;99751.00;;;;5068374;28;20231;-45
2022/06/19 02:59:59;;;;;;;7.00;4.70;;;29.40;52.40;30.40;99766.00;;;;5069495;28;20631;-44
2022/06/19 03:02:28;;;;;;;10.77;5.32;;;29.40;51.90;30.40;99781.00;;;;5068794;28;20166;-45
2022/06/19 03:04:57;;;;;;;8.07;5.15;;;29.40;51.80;30.20;99785.00;;;;5068750;28;20197;-45
2022/06/19 03:07:24;;;;;;;13.55;5.88;;;29.40;51.80;30.40;99786.00;;;;5051467;28;20170;-44
2022/06/19 03:09:49;;;;;;;9.63;5.28;;;29.30;51.50;30.30;99786.00;;;;5068608;28;20189;-45
2022/06/19 03:12:15;;;;;;;9.50;5.30;;;29.30;51.60;30.30;99800.00;;;;5068699;28;20678;-45
2022/06/19 03:14:41;;;;;;;8.27;5.65;;;29.20;51.70;30.30;99802.00;;;;5068466;28;20822;-45
2022/06/19 03:17:10;;;;;;;8.40;4.93;;;29.20;51.60;30.20;99799.00;;;;5068145;28;20549;-45
2022/06/19 03:19:35;;;;;;;9.38;5.13;;;29.10;51.40;30.20;99781.00;;;;5067089;28;20188;-45
2022/06/19 03:22:02;;;;;;;9.35;5.10;;;29.10;51.20;30.10;99776.00;;;;5068116;28;20839;-44
2022/06/19 03:24:28;;;;;;;9.88;5.25;;;29.00;51.00;30.10;99803.00;;;;5068280;28;20206;-44
2022/06/19 03:26:53;;;;;;;13.70;5.32;;;29.00;50.80;30.10;99831.00;;;;5067413;28;20204;-45
2022/06/19 03:29:19;;;;;;;8.73;5.22;;;29.00;50.40;30.10;99797.00;;;;5077350;28;20185;-45
2022/06/19 03:31:45;;;;;;;11.43;5.43;;;29.00;50.40;30.00;99778.00;;;;5067870;28;20235;-45
2022/06/19 03:34:10;;;;;;;13.23;5.43;;;28.90;50.50;30.00;99798.00;;;;5069371;28;20194;-45
2022/06/19 03:36:36;;;;;;;10.35;5.10;;;28.90;50.50;30.00;99827.00;;;;5070848;28;20161;-43
2022/06/19 03:39:02;;;;;;;8.90;5.57;;;29.00;50.50;29.90;99835.00;;;;5067247;28;20190;-45
2022/06/19 03:41:28;;;;;;;10.77;5.30;;;28.80;50.50;29.90;99831.00;;;;5067603;28;20170;-44
2022/06/19 03:43:54;;;;;;;8.55;5.15;;;28.80;50.70;29.90;99861.00;;;;5067163;28;20189;-45
2022/06/19 03:46:19;;;;;;;8.13;5.22;;;28.80;50.80;29.90;99870.00;;;;5066354;28;20177;-45
2022/06/19 03:48:50;;;;;;;9.93;5.10;;;28.80;51.00;29.80;99865.00;;;;5067444;28;20177;-43
2022/06/19 03:51:17;;;;;;;9.20;5.32;;;28.80;51.70;29.80;99870.00;;;;5067799;28;20685;-45
2022/06/19 03:53:45;;;;;;;8.23;4.85;;;28.70;51.90;29.80;99832.00;;;;5067258;28;20185;-45
2022/06/19 03:56:15;;;;;;;7.53;5.03;;;28.70;52.30;29.80;99883.00;;;;5067280;28;20219;-45
2022/06/19 03:58:46;;;;;;;10.20;5.00;;;28.60;52.80;29.70;99895.00;;;;5065364;28;20227;-44
2022/06/19 04:01:33;;;;;;;6.63;5.05;;;28.60;53.10;29.70;99894.00;;;;5067341;28;20183;-45
2022/06/19 04:03:58;;;;;;;7.97;4.85;;;28.50;53.30;29.60;99900.00;;;;5066801;28;20200;-42
2022/06/19 04:06:27;;;;;;;5.60;4.22;;;28.50;53.60;29.60;99898.00;;;;5066808;28;20178;-44
2022/06/19 04:08:53;;;;;;;5.07;4.32;;;28.50;53.70;29.60;99910.00;;;;5066595;28;20174;-42
2022/06/19 04:11:21;;;;;;;6.45;4.38;;;28.50;53.70;29.60;99924.00;;;;5066833;28;20208;-44
2022/06/19 04:13:47;;;;;;;5.72;4.32;;;28.50;53.80;29.50;99926.00;;;;5065191;28;20182;-45
2022/06/19 04:16:21;;;;;;;6.75;4.10;;;28.40;53.90;29.50;99929.00;;;;5066675;28;20249;-44
2022/06/19 04:18:50;;;;;;;4.40;4.00;;;28.40;53.90;29.50;99935.00;;;;5066270;28;20154;-44
2022/06/19 04:21:18;;;;;;;3.72;3.33;;;28.40;53.80;29.40;99949.00;;;;5067251;28;20170;-44
2022/06/19 04:23:44;;;;;;;4.68;3.65;;;28.30;53.70;29.40;99936.00;;;;5079676;28;20221;-44
2022/06/19 04:26:12;;;;;;;6.78;3.63;;;28.20;53.70;29.40;99972.00;;;;5095868;28;20168;-45
2022/06/19 04:28:38;;;;;;;4.43;3.28;;;28.20;53.70;29.30;99967.00;;;;5092917;28;20218;-44
2022/06/19 04:31:04;;;;;;;4.45;3.35;;;28.00;53.60;29.30;99952.00;;;;5067463;28;20745;-45
2022/06/19 04:33:32;;;;;;;4.88;3.17;;;28.00;53.60;29.20;99953.00;;;;5066343;28;20188;-44
2022/06/19 04:35:57;;;;;;;4.03;2.70;;;28.00;53.60;29.20;99952.00;;;;5066556;28;20673;-44
2022/06/19 04:38:23;;;;;;;3.90;2.80;;;28.00;53.70;29.20;99981.00;;;;5066180;28;20173;-44
2022/06/19 04:40:50;;;;;;;3.40;2.90;;;28.00;53.20;29.10;99982.00;;;;5069812;28;20170;-45
2022/06/19 04:43:16;;;;;;;4.30;2.85;;;27.90;53.10;29.10;99988.00;;;;5071944;28;20224;-45
2022/06/19 04:45:42;;;;;;;3.35;2.92;;;27.90;52.70;29.10;99971.00;;;;5069879;28;20686;-43
2022/06/19 04:48:08;;;;;;;3.72;2.83;;;27.90;52.60;29.00;99988.00;;;;5068147;28;20829;-44
2022/06/19 04:50:34;;;;;;;3.75;2.58;;;27.90;52.20;29.00;99973.00;;;;5066162;28;20189;-45
2022/06/19 04:52:59;;;;;;;4.63;3.00;;;27.90;52.00;29.00;99975.00;;;;5065931;28;20185;-44
2022/06/19 04:55:26;;;;;;;4.82;2.67;;;27.90;51.70;29.00;99954.00;;;;5066470;28;20204;-44
2022/06/19 04:57:51;;;;;;;5.43;2.90;;;27.80;51.60;28.90;99972.00;;;;5065673;28;20235;-44
2022/06/19 05:00:19;;;;;;;4.55;2.63;;;27.80;50.90;28.90;99960.00;;;;5066037;28;20186;-44
2022/06/19 05:02:49;;;;;;;3.92;2.70;;;27.70;50.80;28.80;99949.00;;;;5065873;28;20165;-43
2022/06/19 05:05:18;;;;;;;2.90;2.50;;;27.70;50.50;28.80;99968.00;;;;5066329;28;20545;-44
2022/06/19 05:07:44;;;;;;;3.70;2.67;;;27.50;50.10;28.80;99946.00;;;;5066071;28;20177;-43
2022/06/19 05:10:10;;;;;;;3.95;2.70;;;27.50;50.20;28.70;99948.00;;;;5065585;28;20197;-43
2022/06/19 05:12:36;;;;;;;3.42;2.33;;;27.60;50.00;28.70;99955.00;;;;5065565;28;20161;-44
2022/06/19 05:15:03;;;;;;;3.38;2.60;;;27.70;49.90;28.70;99942.00;;;;5065877;28;20174;-44
2022/06/19 05:17:28;;;;;;;5.03;2.50;;;27.70;49.60;28.70;99960.00;;;;5065944;28;20165;-45
2022/06/19 05:19:54;;;;;;;4.80;2.50;;;27.60;49.60;28.70;99957.00;;;;5065813;28;20684;-44
2022/06/19 05:22:20;;;;;;;4.72;2.67;;;27.60;50.30;28.70;100016.00;;;;5065465;28;20644;-45
2022/06/19 05:24:45;;;;;;;3.33;2.38;;;27.70;49.30;28.70;100046.00;;;;5065931;28;20611;-45
2022/06/19 05:27:11;;;;;;;5.28;2.83;;;27.60;49.20;28.40;100020.00;;;;5065307;28;20571;-44
2022/06/19 05:29:38;;;;;;;3.95;2.55;;;27.40;48.90;28.50;100006.00;;;;5065452;28;20685;-44
2022/06/19 05:32:04;;;;;;;4.63;2.63;;;27.40;49.20;28.50;100004.00;;;;5065826;28;20233;-45
2022/06/19 05:34:31;;;;;;;4.95;2.60;;;27.40;49.20;28.50;100004.00;;;;5065714;28;20193;-45
2022/06/19 05:36:57;;;;;;;5.97;2.70;;;27.40;49.20;28.50;100021.00;;;;5065481;28;20253;-43
2022/06/19 05:39:23;;;;;;;5.32;2.63;;;27.40;48.60;28.50;100010.00;;;;5065475;28;20251;-44
2022/06/19 05:41:49;;;;;;;4.57;2.42;;;27.30;48.30;28.40;99998.00;;;;5065274;28;20166;-45
2022/06/19 05:44:14;;;;;;;3.63;2.55;;;27.40;48.50;28.40;100007.00;;;;5065335;28;20196;-44
2022/06/19 05:46:41;;;;;;;5.32;2.72;;;27.30;48.50;28.40;100013.00;;;;5065558;28;20177;-43
2022/06/19 05:49:08;;;;;;;4.28;2.53;;;27.30;48.80;28.40;100027.00;;;;5065626;28;20236;-46
2022/06/19 05:51:34;;;;;;;4.60;2.60;;;27.20;48.40;28.30;100025.00;;;;5065502;28;20201;-43
2022/06/19 05:54:00;;;;;;;6.85;2.85;;;27.20;48.70;28.30;100019.00;;;;5066106;28;20181;-45
2022/06/19 05:56:26;;;;;;;5.90;2.92;;;27.20;48.50;28.30;100012.00;;;;5067597;28;20169;-44
2022/06/19 05:58:52;;;;;;;7.25;2.90;;;27.10;49.00;28.30;99984.00;;;;5064900;28;20682;-43
2022/06/19 06:01:18;;;;;;;5.25;2.70;;;27.10;48.00;28.20;99981.00;;;;5065581;28;20178;-44
2022/06/19 06:03:44;;;;;;;6.65;3.10;;;27.00;47.80;28.20;99985.00;;;;5064939;28;20189;-44
2022/06/19 06:06:25;;;;;;;6.82;2.80;;;27.00;48.00;28.20;99980.00;;;;5065262;28;20198;-43
2022/06/19 06:08:51;;;;;;;4.28;2.60;;;27.00;48.00;28.10;99989.00;;;;5066829;28;20537;-44
2022/06/19 06:11:17;;;;;;;3.80;2.60;;;26.90;47.90;28.10;99984.00;;;;5069142;28;20215;-44
2022/06/19 06:13:43;;;;;;;5.38;2.58;;;26.90;48.10;28.00;99975.00;;;;5068843;28;20756;-43
2022/06/19 06:16:11;;;;;;;6.93;2.75;;;26.80;48.00;28.00;99977.00;;;;5069116;28;20170;-44
2022/06/19 06:18:36;;;;;;;5.55;2.83;;;26.80;48.00;28.00;99976.00;;;;5067620;28;20173;-45
2022/06/19 06:21:09;;;;;;;5.45;2.85;;;26.80;48.00;28.00;99961.00;;;;5067816;28;20177;-43
2022/06/19 06:23:35;;;;;;;6.40;3.05;;;26.90;48.00;28.00;99970.00;;;;5068405;28;20850;-43
2022/06/19 06:26:09;;;;;;;8.43;3.20;;;26.80;47.80;28.00;99960.00;;;;5069063;28;20173;-43
2022/06/19 06:28:36;;;;;;;4.80;2.80;;;26.90;47.80;28.00;99953.00;;;;5068828;28;20178;-43
2022/06/19 06:31:02;;;;;;;5.45;2.90;;;26.90;47.60;27.90;99949.00;;;;5068835;28;20201;-44
2022/06/19 06:33:28;;;;;;;7.93;3.05;;;26.80;47.90;27.90;99946.00;;;;5068731;28;20230;-45
2022/06/19 06:35:54;;;;;;;6.50;2.90;;;26.80;48.20;27.90;99955.00;;;;5068925;28;20165;-44
2022/06/19 06:38:20;;;;;;;5.90;2.67;;;26.90;48.50;27.90;99962.00;;;;5068424;28;20462;-43
2022/06/19 06:40:45;;;;;;;4.88;2.80;;;26.90;48.60;27.90;99954.00;;;;5068650;28;20248;-43
2022/06/19 06:43:11;;;;;;;4.63;2.50;;;26.90;48.60;28.00;99944.00;;;;5068736;28;20202;-46
2022/06/19 06:45:37;;;;;;;3.38;2.58;;;27.00;49.30;27.90;99944.00;;;;5068842;28;20176;-43
2022/06/19 06:48:03;;;;;;;4.03;2.53;;;27.00;48.90;27.90;99955.00;;;;5068422;28;20173;-43
2022/06/19 06:50:29;;;;;;;4.53;2.85;;;27.00;48.90;27.90;99952.00;;;;5068674;28;20193;-43
2022/06/19 06:52:55;;;;;;;4.88;2.80;;;27.00;49.00;27.90;99946.00;;;;5067918;28;20627;-44
2022/06/19 06:55:21;;;;;;;4.65;2.67;;;27.00;49.20;27.90;99946.00;;;;5068237;28;20173;-44
2022/06/19 06:57:47;;;;;;;3.88;2.67;;;27.00;49.50;27.90;99955.00;;;;5068703;28;20162;-44
2022/06/19 07:00:19;;;;;;;5.20;2.75;;;27.00;49.60;27.90;99965.00;;;;5068846;28;20278;-44
2022/06/19 07:02:44;;;;;;;4.13;2.58;;;27.00;49.90;27.70;99977.00;;;;5068035;28;20166;-45
2022/06/19 07:05:10;;;;;;;4.80;2.97;;;27.00;50.00;27.90;100019.00;;;;5069075;28;20185;-43
2022/06/19 07:07:36;;;;;;;5.30;2.92;;;27.00;50.70;27.90;100026.00;;;;5067583;28;20204;-45
2022/06/19 07:10:02;;;;;;;3.80;2.40;;;27.00;50.20;27.90;100025.00;;;;5067439;28;20201;-43
2022/06/19 07:12:28;;;;;;;3.80;2.47;;;27.00;50.10;27.90;100029.00;;;;5068324;28;20161;-44
2022/06/19 07:14:53;;;;;;;6.13;2.72;;;27.10;50.30;27.90;100035.00;;;;5068255;28;20249;-44
2022/06/19 07:17:19;;;;;;;4.40;2.80;;;27.10;50.30;27.90;100088.00;;;;5068683;28;20165;-43
2022/06/19 07:19:45;;;;;;;4.88;3.10;;;27.10;50.60;27.90;100117.00;;;;5068128;28;20170;-44
2022/06/19 07:22:13;;;;;;;4.95;2.92;;;27.00;50.70;27.90;100148.00;;;;5067914;28;20181;-44
2022/06/19 07:24:38;;;;;;;6.32;2.90;;;27.00;50.90;27.90;100174.00;;;;5067929;28;20345;-44
2022/06/19 07:27:04;;;;;;;6.10;2.97;;;26.90;50.70;27.80;100199.00;;;;5068492;28;20193;-44
2022/06/19 07:29:30;;;;;;;4.75;2.70;;;26.70;50.80;27.80;100229.00;;;;5068578;28;20180;-45
2022/06/19 07:31:56;;;;;;;4.38;2.95;;;26.60;50.40;27.70;100269.00;;;;4973600;28;21175;-45
2022/06/19 07:34:22;;;;;;;5.88;2.72;;;26.50;50.40;27.60;100230.00;;;;5100071;28;20223;-43
2022/06/19 07:36:48;;;;;;;7.65;3.20;;;26.40;50.40;27.50;100319.00;;;;5108842;28;20164;-45
2022/06/19 07:39:13;;;;;;;7.88;3.15;;;26.30;49.80;27.50;100311.00;;;;5088957;28;20279;-42
2022/06/19 07:41:40;;;;;;;6.35;3.22;;;26.20;49.90;27.40;100303.00;;;;5088450;28;20255;-45
2022/06/19 07:44:05;;;;;;;7.28;3.78;;;26.20;49.70;27.40;100325.00;;;;5105488;28;20197;-43
2022/06/19 07:46:31;;;;;;;8.13;3.60;;;26.20;49.50;27.30;100355.00;;;;5104584;28;20180;-44
2022/06/19 07:51:41;;;;;;;7.22;3.60;;;26.00;49.00;27.20;100298.00;;;;5088367;28;20192;-45
2022/06/19 07:54:07;;;;;;;10.55;3.78;;;26.00;48.60;27.20;100295.00;;;;5088613;28;20184;-45
2022/06/19 07:56:33;;;;;;;7.65;3.88;;;25.90;48.30;27.10;100284.00;;;;5088458;28;20165;-43
2022/06/19 07:58:58;;;;;;;7.25;3.65;;;25.90;47.90;26.80;100267.00;;;;5054773;28;20170;-44
2022/06/19 08:01:24;;;;;;;10.88;3.85;;;25.70;48.00;27.00;100285.00;;;;5109033;28;20168;-45
2022/06/19 08:03:50;;;;;;;10.23;3.80;;;25.80;48.20;27.00;100288.00;;;;5132133;28;20168;-43
2022/06/19 08:06:19;;;;;;;6.93;3.47;;;25.80;47.80;27.00;100266.00;;;;5134549;28;20179;-44
2022/06/19 08:08:45;;;;;;;7.70;3.75;;;25.90;48.10;27.00;100269.00;;;;5136970;27;20183;-43
2022/06/19 08:11:11;;;;;;;9.35;3.97;;;26.00;48.00;27.00;100271.00;;;;5108208;28;20212;-44
2022/06/19 08:13:37;;;;;;;7.75;3.60;;;25.90;47.40;27.00;100272.00;;;;5108132;28;20180;-44
2022/06/19 08:16:08;;;;;;;7.80;3.63;;;25.90;47.30;27.00;100267.00;;;;5110497;28;20168;-43
2022/06/19 08:18:35;;;;;;;9.23;3.75;;;26.00;47.00;27.00;100278.00;;;;5125732;27;20207;-44
2022/06/19 08:21:01;;;;;;;8.50;3.90;;;25.90;46.50;27.00;100272.00;;;;5123618;27;20183;-44
2022/06/19 08:23:27;;;;;;;8.50;3.67;;;25.90;46.20;27.00;100257.00;;;;5107678;28;20555;-44
2022/06/19 08:25:53;;;;;;;7.18;3.67;;;25.90;46.70;26.90;100256.00;;;;5103858;28;20164;-45
2022/06/19 08:31:05;;;;;;;7.05;3.50;;;25.90;46.60;26.90;100264.00;;;;5087254;28;20797;-44
2022/06/19 08:33:31;;;;;;;9.43;3.65;;;25.90;46.60;26.90;100270.00;;;;5034480;27;20200;-43
2022/06/19 08:36:02;;;;;;;8.57;3.30;;;25.90;46.60;26.90;100251.00;;;;5107621;28;20302;-43
2022/06/19 08:38:35;;;;;;;9.02;3.65;;;25.90;46.90;26.90;100268.00;;;;5122576;27;20202;-43
2022/06/19 08:41:06;;;;;;;9.30;3.65;;;25.90;46.70;26.90;100276.00;;;;5107556;28;20243;-44
2022/06/19 08:43:57;;;;;;;7.50;3.75;;;25.90;46.70;27.00;100291.00;;;;5107246;28;20234;-43
2022/06/19 08:46:36;;;;;;;6.57;3.70;;;26.00;46.40;27.00;100295.00;;;;5107245;28;20192;-43
2022/06/19 08:49:08;;;;;;;7.25;3.80;;;26.00;46.40;27.00;100298.00;;;;5123192;27;20156;-44
2022/06/19 08:52:02;;;;;;;9.93;4.10;;;26.00;46.40;27.00;100286.00;;;;5107302;28;20192;-43
2022/06/19 08:54:46;;;;;;;8.85;3.67;;;26.00;46.10;27.00;100278.00;;;;5123493;27;20728;-45
2022/06/19 08:57:30;;;;;;;6.93;3.63;;;26.10;46.30;27.00;100293.00;;;;5121377;27;20217;-44
2022/06/19 09:00:28;;;;;;;8.93;4.00;;;26.20;46.30;26.90;100306.00;;;;5096943;28;20217;-43
2022/06/19 09:03:17;;;;;;;8.45;4.18;;;25.60;45.80;26.80;100291.00;;;;5122618;27;20164;-43
2022/06/19 09:06:10;;;;;;;8.43;3.83;;;25.30;47.10;26.80;100273.00;;;;5123433;27;20149;-45
2022/06/19 09:08:56;;;;;;;10.13;3.70;;;25.70;47.10;26.80;100257.00;;;;5107480;28;20191;-44
2022/06/19 09:11:57;;;;;;;13.80;4.50;;;25.90;47.00;26.90;100264.00;;;;5121816;27;20184;-45
2022/06/19 09:14:37;;;;;;;11.77;3.95;;;26.00;47.10;26.90;100275.00;;;;5120520;27;20817;-43
2022/06/19 09:17:12;;;;;;;9.70;4.03;;;26.00;46.50;26.90;100213.00;;;;5123354;27;20160;-43
2022/06/19 09:19:52;;;;;;;13.45;4.25;;;26.20;46.60;27.00;100251.00;;;;5105862;28;20159;-43
2022/06/19 09:23:14;;;;;;;6.93;3.40;;;26.20;46.50;27.00;100257.00;;;;5122642;27;20168;-43
2022/06/19 09:26:27;;;;;;;7.45;3.80;;;26.20;46.40;27.10;100269.00;;;;5101549;28;20180;-44
2022/06/19 09:29:13;;;;;;;9.90;4.05;;;26.40;46.50;27.10;100288.00;;;;5103298;28;20176;-42
2022/06/19 09:31:48;;;;;;;8.57;3.85;;;26.40;46.20;27.10;100289.00;;;;4973482;28;20196;-43
2022/06/19 09:34:21;;;;;;;8.20;3.70;;;26.30;45.20;27.10;100264.00;;;;5098407;28;20326;-44
2022/06/19 09:37:00;;;;;;;6.65;3.33;;;26.20;46.90;27.10;100254.00;;;;5117683;27;20171;-44
2022/06/19 09:40:00;;;;;;;6.85;3.42;;;26.30;46.90;27.20;100267.00;;;;5120923;27;20164;-44
2022/06/19 09:42:32;;;;;;;5.80;3.40;;;26.40;46.60;27.10;100259.00;;;;5122945;28;20172;-43
2022/06/19 09:45:08;;;;;;;7.13;3.90;;;26.40;46.60;27.20;100256.00;;;;5122484;28;20237;-43
2022/06/19 09:47:42;;;;;;;8.85;4.18;;;26.40;46.50;27.20;100264.00;;;;5121794;28;20570;-44
2022/06/19 09:50:35;;;;;;;9.32;3.80;;;26.50;46.40;27.20;100245.00;;;;5106463;28;20195;-43
2022/06/19 09:53:09;;;;;;;7.78;4.20;;;26.50;46.50;27.20;100257.00;;;;5118674;27;20200;-43
2022/06/19 09:55:51;;;;;;;9.68;3.80;;;26.50;46.50;27.30;100261.00;;;;5122052;28;20582;-43
2022/06/19 09:58:34;;;;;;;6.90;3.40;;;26.50;46.60;27.30;100234.00;;;;5101110;28;20230;-43
2022/06/19 10:00:59;;;;;;;7.47;3.70;;;26.50;46.60;27.30;100223.00;;;;5099938;28;20169;-43
2022/06/19 10:03:44;;;;;;;7.85;3.63;;;26.60;46.50;27.30;100219.00;;;;5101596;28;20541;-45
2022/06/19 10:06:41;;;;;;;9.00;3.95;;;26.60;46.80;27.40;100214.00;;;;5097276;28;20177;-44
2022/06/19 10:09:25;;;;;;;10.40;4.28;;;26.60;46.90;27.40;100228.00;;;;5064680;28;20324;-43
2022/06/19 10:11:54;;;;;;;6.43;3.47;;;26.60;46.80;27.40;100223.00;;;;5068580;28;20591;-43
2022/06/19 10:14:39;;;;;;;8.95;4.18;;;26.60;47.60;27.40;100221.00;;;;5100758;28;20181;-43
2022/06/19 10:17:45;;;;;;;9.43;4.45;;;26.70;48.10;27.40;100189.00;;;;5101638;28;20173;-42
2022/06/19 10:20:18;;;;;;;20.67;4.97;;;26.60;47.50;27.40;100197.00;;;;5097973;28;20176;-42
2022/06/19 10:23:19;;;;;;;14.90;6.45;;;26.40;47.20;27.40;100158.00;;;;5085511;28;20185;-44
2022/06/19 10:25:51;;;;;;;9.32;4.20;;;26.40;48.20;27.40;100050.00;;;;5085928;28;20173;-44
2022/06/19 10:28:47;;;;;;;9.65;4.03;;;26.50;48.40;27.40;99962.00;;;;5085948;28;20286;-43
2022/06/19 10:31:21;;;;;;;7.60;4.45;;;26.50;48.10;27.40;99876.00;;;;5086993;28;20197;-43
2022/06/19 10:34:14;;;;;;;8.38;4.10;;;26.40;48.80;27.30;99813.00;;;;5085213;28;20661;-42
2022/06/19 10:37:00;;;;;;;10.98;4.60;;;26.40;49.10;27.30;99781.00;;;;5085827;28;20246;-43
2022/06/19 10:39:51;;;;;;;8.48;3.95;;;26.40;49.20;27.30;99775.00;;;;5100551;28;20510;-43
2022/06/19 10:42:50;;;;;;;10.05;4.65;;;26.40;49.50;27.30;99796.00;;;;5099063;28;20289;-42
2022/06/19 10:45:51;;;;;;;10.23;4.63;;;26.40;49.80;27.30;99899.00;;;;5102317;28;20594;-42
2022/06/19 10:49:14;;;;;;;11.57;5.40;;;26.30;50.10;27.20;100046.00;;;;5100857;28;20230;-42
2022/06/19 10:52:10;;;;;;;11.27;5.40;;;26.00;51.00;26.90;100052.00;;;;5086524;28;20197;-44
2022/06/19 10:55:08;;;;;;;10.73;5.22;;;25.10;52.90;26.70;100086.00;;;;4878058;28;20693;-43
2022/06/19 10:58:16;;;;;;;11.43;5.40;;;24.90;53.30;26.50;100103.00;;;;5083668;28;20294;-43
2022/06/19 11:00:42;;;;;;;11.35;5.38;;;24.60;53.60;26.40;100083.00;;;;5088520;28;20680;-42
2022/06/19 11:06:49;;;;;;;13.05;5.53;;;25.40;52.30;26.50;100190.00;;;;5099410;28;20649;-42
2022/06/19 11:09:38;;;;;;;9.57;5.00;;;25.20;52.20;26.50;100176.00;;;;5101250;28;20165;-43
2022/06/19 11:12:32;;;;;;;11.85;5.28;;;25.30;52.10;26.50;100127.00;;;;5103669;28;20191;-43
2022/06/19 11:15:01;;;;;;;12.73;4.85;;;25.30;51.50;26.60;100135.00;;;;5088188;28;20189;-42
2022/06/19 11:17:41;;;;;;;11.40;5.15;;;25.50;51.20;26.60;100125.00;;;;5088807;28;20744;-42
2022/06/19 11:20:24;;;;;;;13.27;5.97;;;25.30;51.20;26.50;100143.00;;;;5087791;28;20168;-45